createdAt,value
2023-12-21T00:02:29.178Z,99281.19
2023-12-21T00:07:30.794Z,99284.69
2023-12-21T00:12:32.813Z,99274.16
2023-12-21T00:17:34.364Z,99262.78
2023-12-21T00:22:35.876Z,99259.28
2023-12-21T00:27:37.303Z,99258.41
2023-12-21T00:32:38.822Z,99260.16
2023-12-21T00:37:40.432Z,99257.53
2023-12-21T00:42:43.635Z,99254.00
2023-12-21T00:47:45.413Z,99252.25
2023-12-21T00:52:47.028Z,99254.00
2023-12-21T00:57:48.768Z,99242.66
2023-12-21T01:02:50.517Z,99242.66
2023-12-21T01:07:52.013Z,99248.78
2023-12-21T01:12:53.472Z,99235.66
2023-12-21T01:17:55.001Z,99226.03
2023-12-21T01:22:56.456Z,99218.16
2023-12-21T01:27:57.897Z,99205.03
2023-12-21T01:32:59.879Z,99212.03
2023-12-21T01:38:01.352Z,99189.28
2023-12-21T01:43:02.852Z,99186.66
2023-12-21T01:48:04.786Z,99177.03
2023-12-21T01:53:06.493Z,99175.28
2023-12-21T01:58:09.949Z,99167.41
2023-12-21T02:03:11.492Z,99166.53
2023-12-21T02:08:13.623Z,99156.03
2023-12-21T02:13:16.714Z,99145.53
2023-12-21T02:18:18.719Z,99141.16
2023-12-21T02:23:22.179Z,99133.25
2023-12-21T02:28:23.783Z,99119.25
2023-12-21T02:33:25.314Z,99107.91
2023-12-21T02:38:26.814Z,99088.66
2023-12-21T02:43:28.320Z,99085.16
2023-12-21T02:48:30.893Z,99060.66
2023-12-21T02:53:32.433Z,99048.41
2023-12-21T02:58:34.111Z,99041.41
2023-12-21T03:03:36.017Z,99030.88
2023-12-21T03:08:37.618Z,99023.00
2023-12-21T03:13:39.096Z,99012.50
2023-12-21T03:18:40.654Z,98995.91
2023-12-21T03:23:42.740Z,98974.00
2023-12-21T03:28:46.269Z,98967.00
2023-12-21T03:33:47.946Z,98964.38
2023-12-21T03:38:50.090Z,98957.38
2023-12-21T03:43:51.579Z,98957.38
2023-12-21T03:48:53.162Z,98946.00
2023-12-21T03:53:54.647Z,98941.63
2023-12-21T03:58:56.110Z,98930.25
2023-12-21T04:03:57.653Z,98908.38
2023-12-21T04:08:59.144Z,98908.38
2023-12-21T04:14:00.673Z,98882.13
2023-12-21T04:19:05.324Z,98873.38
2023-12-21T04:24:07.308Z,98855.88
2023-12-21T04:29:08.938Z,98851.50
2023-12-21T04:34:10.497Z,98841.88
2023-12-21T04:39:12.265Z,98836.63
2023-12-21T04:44:13.754Z,98817.38
2023-12-21T04:49:20.381Z,98798.13
2023-12-21T04:54:21.972Z,98809.50
2023-12-21T04:59:23.567Z,98807.75
2023-12-21T05:04:25.307Z,98793.75
2023-12-21T05:09:26.857Z,98794.63
2023-12-21T05:14:28.336Z,98795.50
2023-12-21T05:19:30.047Z,98772.75
2023-12-21T05:24:31.586Z,98761.38
2023-12-21T05:29:33.201Z,98741.28
2023-12-21T05:34:34.828Z,98739.50
2023-12-21T05:39:36.612Z,98728.16
2023-12-21T05:44:38.139Z,98729.00
2023-12-21T05:49:39.758Z,98719.38
2023-12-21T05:54:41.558Z,98706.25
2023-12-21T05:59:43.186Z,98697.50
2023-12-21T06:04:44.686Z,98685.25
2023-12-21T06:09:46.212Z,98673.88
2023-12-21T06:14:47.671Z,98673.88
2023-12-21T06:19:49.287Z,98664.25
2023-12-21T06:24:51.147Z,98645.88
2023-12-21T06:29:52.750Z,98624.00
2023-12-21T06:34:54.309Z,98631.84
2023-12-21T06:39:55.973Z,98612.59
2023-12-21T06:44:57.463Z,98614.34
2023-12-21T06:49:58.960Z,98597.69
2023-12-21T06:55:00.609Z,98600.28
2023-12-21T07:00:02.170Z,98585.44
2023-12-21T07:05:03.853Z,98589.75
2023-12-21T07:10:05.936Z,98574.88
2023-12-21T07:15:07.674Z,98574.84
2023-12-21T07:20:09.803Z,98565.19
2023-12-21T07:25:11.322Z,98552.03
2023-12-21T07:30:13.169Z,98545.03
2023-12-21T07:35:14.702Z,98538.00
2023-12-21T07:40:16.204Z,98516.06
2023-12-21T07:45:17.714Z,98517.81
2023-12-21T07:50:19.177Z,98500.28
2023-12-21T07:55:21.920Z,98489.72
2023-12-21T08:00:23.471Z,98476.56
2023-12-21T08:05:25.249Z,98459.00
2023-12-21T08:10:26.958Z,98458.97
2023-12-21T08:15:28.496Z,98446.63
2023-12-21T08:20:31.155Z,98447.50
2023-12-21T08:25:35.674Z,98439.56
2023-12-21T08:30:37.277Z,98408.81
2023-12-21T08:35:38.805Z,98406.13
2023-12-21T08:40:40.306Z,98389.34
2023-12-21T08:45:41.770Z,98381.44
2023-12-21T08:50:43.309Z,98380.47
2023-12-21T08:55:45.530Z,98364.69
2023-12-21T09:00:47.298Z,98347.88
2023-12-21T09:05:49.094Z,98331.19
2023-12-21T09:10:50.893Z,98332.88
2023-12-21T09:15:52.380Z,98325.78
2023-12-21T09:20:53.840Z,98302.88
2023-12-21T09:25:55.533Z,98291.47
2023-12-21T09:30:58.091Z,98293.16
2023-12-21T09:35:59.790Z,98273.78
2023-12-21T09:41:01.484Z,98252.59
2023-12-21T09:46:04.314Z,98237.59
2023-12-21T09:51:06.745Z,98217.38
2023-12-21T09:56:08.782Z,98198.00
2023-12-21T10:01:10.412Z,98187.44
2023-12-21T10:06:12.902Z,98164.50
2023-12-21T10:11:14.320Z,98163.50
2023-12-21T10:16:17.733Z,98144.94
2023-12-21T10:21:21.164Z,98119.28
2023-12-21T10:26:22.689Z,98111.31
2023-12-21T10:31:24.276Z,98097.03
2023-12-21T10:36:27.480Z,98086.25
2023-12-21T10:41:30.441Z,98073.06
2023-12-21T10:46:32.518Z,98049.31
2023-12-21T10:51:38.340Z,98043.81
2023-12-21T10:56:43.590Z,98012.88
2023-12-21T11:01:45.321Z,97997.16
2023-12-21T11:06:48.004Z,97984.72
2023-12-21T11:11:49.805Z,97971.31
2023-12-21T11:16:56.666Z,97956.34
2023-12-21T11:21:58.758Z,97951.03
2023-12-21T11:27:02.852Z,97928.88
2023-12-21T11:32:07.109Z,97917.38
2023-12-21T11:37:22.248Z,97905.00
2023-12-21T11:42:37.269Z,97887.41
2023-12-21T11:47:39.067Z,97878.69
2023-12-21T11:52:40.593Z,97866.47
2023-12-21T11:57:42.192Z,97854.19
2023-12-21T12:02:51.434Z,97841.06
2023-12-21T12:07:53.720Z,97815.59
2023-12-21T12:12:55.818Z,97798.91
2023-12-21T12:17:57.978Z,97777.91
2023-12-21T12:22:59.797Z,97768.25
2023-12-21T12:28:01.690Z,97751.59
2023-12-21T12:33:05.103Z,97746.38
2023-12-21T12:38:07.271Z,97720.91
2023-12-21T12:43:09.956Z,97703.38
2023-12-21T12:48:11.790Z,97685.84
2023-12-21T12:53:15.907Z,97657.78
2023-12-21T12:58:17.692Z,97658.63
2023-12-21T13:03:19.629Z,97627.94
2023-12-21T13:08:21.104Z,97609.50
2023-12-21T13:13:23.930Z,97591.06
2023-12-21T13:18:25.451Z,97591.06
2023-12-21T13:23:27.034Z,97561.28
2023-12-21T13:28:28.546Z,97546.31
2023-12-21T13:33:30.241Z,97541.06
2023-12-21T13:38:31.751Z,97525.31
2023-12-21T13:43:33.467Z,97501.59
2023-12-21T13:48:35.134Z,97474.47
2023-12-21T13:53:37.053Z,97458.66
2023-12-21T13:58:38.608Z,97444.69
2023-12-21T14:03:40.210Z,97413.19
2023-12-21T14:08:41.727Z,97409.69
2023-12-21T14:13:43.238Z,97402.72
2023-12-21T14:18:44.703Z,97373.78
2023-12-21T14:23:46.145Z,97346.66
2023-12-21T14:28:54.414Z,97318.59
2023-12-21T14:33:59.024Z,97312.47
2023-12-21T14:39:00.561Z,97296.75
2023-12-21T14:44:02.195Z,97287.97
2023-12-21T14:49:03.738Z,97269.53
2023-12-21T14:54:05.268Z,97254.66
2023-12-21T14:59:06.895Z,97227.41
2023-12-21T15:04:08.554Z,97210.69
2023-12-21T15:09:10.362Z,97194.84
2023-12-21T15:14:12.311Z,97180.81
2023-12-21T15:19:13.960Z,97149.16
2023-12-21T15:24:15.492Z,97154.44
2023-12-21T15:29:16.994Z,97155.28
2023-12-21T15:34:18.805Z,97111.31
2023-12-21T15:39:20.677Z,97106.06
2023-12-21T15:44:22.197Z,97102.50
2023-12-21T15:49:23.757Z,97076.09
2023-12-21T15:54:25.250Z,97060.31
2023-12-21T15:59:26.751Z,97042.72
2023-12-21T16:04:28.342Z,97022.50
2023-12-21T16:09:29.920Z,97025.09
2023-12-21T16:14:31.462Z,96979.41
2023-12-21T16:19:34.674Z,96970.56
2023-12-21T16:24:36.138Z,96959.06
2023-12-21T16:29:39.174Z,96931.72
2023-12-21T16:34:45.903Z,96943.97
2023-12-21T16:39:47.473Z,96921.91
2023-12-21T16:44:51.245Z,96919.28
2023-12-21T16:49:52.705Z,96910.47
2023-12-21T16:54:54.204Z,96913.03
2023-12-21T16:59:56.189Z,96892.75
2023-12-21T17:04:58.722Z,96880.28
2023-12-21T17:10:00.361Z,96864.47
2023-12-21T17:15:01.828Z,96861.78
2023-12-21T17:20:04.025Z,96838.06
2023-12-21T17:25:05.904Z,96835.38
2023-12-21T17:30:07.923Z,96818.63
2023-12-21T17:35:09.528Z,96792.28
2023-12-21T17:40:15.090Z,96800.97
